Time;durP1;ratioP1;P1;durP2;ratioP2;P2;SDS_P1;SDS_P2;PMS_P1;PMS_P2;Temp;Humidity;BMP_temperature;BMP_pressure;BME280_temperature;BME280_humidity;BME280_pressure;Samples;Min_cycle;Max_cycle;Signal;HPM_P1;HPM_P2
2022/11/04 00:01:46;;;;;;;5.73;5.10;;;12.20;99.90;;;;;;4916781;29;20455;-73
2022/11/04 00:04:17;;;;;;;8.37;6.00;;;12.20;99.90;;;;;;4918535;29;20930;-73
2022/11/04 00:06:46;;;;;;;6.27;5.53;;;12.20;99.90;;;;;;4917027;29;20973;-74
2022/11/04 00:09:17;;;;;;;6.40;5.30;;;12.20;99.90;;;;;;4918278;29;20512;-73
2022/11/04 00:14:31;;;;;;;7.33;6.37;;;12.30;99.90;;;;;;4918257;29;20443;-74
2022/11/04 00:33:49;;;;;;;7.63;6.53;;;12.20;99.90;;;;;;4918497;29;20448;-74
2022/11/04 00:36:19;;;;;;;6.90;5.83;;;12.20;99.90;;;;;;4919946;29;20463;-73
2022/11/04 00:38:47;;;;;;;6.60;5.90;;;12.20;99.90;;;;;;4923283;29;20472;-74
2022/11/04 00:41:28;;;;;;;7.73;6.10;;;12.20;99.90;;;;;;4921797;29;20839;-74
2022/11/04 00:43:59;;;;;;;6.80;6.07;;;12.20;99.90;;;;;;4921573;29;20911;-74
2022/11/04 00:46:27;;;;;;;8.53;7.20;;;12.20;99.90;;;;;;4920342;29;20444;-74
2022/11/04 00:48:55;;;;;;;7.57;6.00;;;12.20;99.90;;;;;;4920627;29;20472;-74
2022/11/04 00:51:25;;;;;;;7.67;6.97;;;12.20;99.90;;;;;;4920378;29;20460;-74
2022/11/04 00:53:54;;;;;;;7.23;6.20;;;12.20;99.90;;;;;;4920365;29;20459;-74
2022/11/04 00:56:22;;;;;;;7.63;5.33;;;12.20;99.90;;;;;;4920277;29;20570;-74
2022/11/04 00:58:50;;;;;;;7.83;6.60;;;12.20;99.90;;;;;;4920333;29;20476;-74
2022/11/04 01:01:19;;;;;;;7.40;6.70;;;12.20;99.90;;;;;;4920003;29;20492;-74
2022/11/04 01:03:50;;;;;;;7.63;6.83;;;12.20;99.90;;;;;;4920741;29;20775;-74
2022/11/04 01:06:19;;;;;;;8.60;7.43;;;12.20;99.90;;;;;;4920591;29;20539;-73
2022/11/04 01:08:49;;;;;;;9.73;8.13;;;12.20;99.90;;;;;;4920912;29;20916;-75
2022/11/04 01:11:17;;;;;;;9.80;8.80;;;12.20;99.90;;;;;;4920742;29;20464;-74
2022/11/04 01:13:45;;;;;;;8.57;7.77;;;12.20;99.90;;;;;;4920397;29;20444;-74
2022/11/04 01:16:13;;;;;;;9.37;8.33;;;12.20;99.90;;;;;;4920031;29;20802;-75
2022/11/04 01:18:41;;;;;;;9.90;8.70;;;12.20;99.90;;;;;;4919828;29;20469;-74
2022/11/04 01:21:12;;;;;;;9.20;8.30;;;12.20;99.90;;;;;;4920433;29;20467;-74
2022/11/04 01:23:41;;;;;;;10.80;8.60;;;12.20;99.90;;;;;;4919648;29;20428;-75
2022/11/04 01:26:13;;;;;;;8.20;7.50;;;12.20;99.90;;;;;;4919841;29;20452;-74
2022/11/04 01:28:42;;;;;;;9.67;8.67;;;12.20;99.90;;;;;;4920010;29;20428;-75
2022/11/04 01:31:11;;;;;;;8.90;8.03;;;12.20;99.90;;;;;;4919513;29;20464;-74
2022/11/04 01:33:39;;;;;;;9.30;8.33;;;12.20;99.90;;;;;;4919570;29;20440;-74
2022/11/04 01:36:09;;;;;;;8.47;7.73;;;12.20;99.90;;;;;;4919714;29;20507;-74
2022/11/04 01:38:37;;;;;;;8.97;8.07;;;12.30;99.90;;;;;;4919390;29;20994;-74
2022/11/04 01:41:06;;;;;;;9.97;9.03;;;12.20;99.90;;;;;;4919301;29;20957;-74
2022/11/04 01:43:49;;;;;;;9.80;8.80;;;12.20;99.90;;;;;;4918384;29;20965;-74
2022/11/04 01:46:29;;;;;;;9.67;8.73;;;12.20;99.90;;;;;;4919067;29;20511;-74
2022/11/04 01:49:01;;;;;;;9.60;8.60;;;12.20;99.90;;;;;;4919409;29;20420;-74
2022/11/04 01:51:32;;;;;;;10.10;8.87;;;12.20;99.90;;;;;;4919065;29;20998;-74
2022/11/04 01:54:02;;;;;;;10.13;9.00;;;12.20;99.90;;;;;;4917937;29;20448;-74
2022/11/04 01:56:30;;;;;;;10.73;9.80;;;12.20;99.90;;;;;;4918946;29;20893;-74
2022/11/04 01:59:06;;;;;;;11.00;9.87;;;12.20;99.90;;;;;;4918811;29;20472;-74
2022/11/04 02:01:35;;;;;;;10.73;9.83;;;12.20;99.90;;;;;;4919188;29;20470;-74
2022/11/04 02:06:47;;;;;;;12.23;11.13;;;12.20;99.90;;;;;;4918554;29;20452;-74
2022/11/04 02:09:17;;;;;;;12.00;11.00;;;12.20;99.90;;;;;;4917521;29;20851;-74
2022/11/04 02:14:34;;;;;;;11.00;9.87;;;12.20;99.90;;;;;;4919117;29;20464;-74
2022/11/04 02:17:11;;;;;;;12.27;11.20;;;12.20;99.90;;;;;;4918731;29;20563;-74
2022/11/04 02:20:10;;;;;;;11.60;10.60;;;12.20;99.90;;;;;;4917373;29;20978;-74
2022/11/04 02:23:17;;;;;;;10.73;9.77;;;12.20;99.90;;;;;;4918771;29;21009;-74
2022/11/04 02:26:24;;;;;;;9.60;8.70;;;12.20;99.90;;;;;;4919169;29;20514;-74
2022/11/04 02:29:22;;;;;;;9.87;8.97;;;12.20;99.90;;;;;;4911011;29;20964;-74
2022/11/04 02:31:58;;;;;;;9.80;8.90;;;12.10;99.90;;;;;;4917327;29;20480;-74
2022/11/04 02:34:36;;;;;;;9.37;8.57;;;12.10;99.90;;;;;;4918601;29;20491;-74
2022/11/04 02:37:15;;;;;;;8.73;7.93;;;12.20;99.90;;;;;;4918938;29;20827;-75
2022/11/04 02:39:52;;;;;;;8.20;7.47;;;12.10;99.90;;;;;;4916766;29;21002;-74
2022/11/04 02:42:28;;;;;;;6.40;5.80;;;12.10;99.90;;;;;;4918119;29;20973;-74
2022/11/04 02:45:09;;;;;;;6.17;5.40;;;12.10;99.90;;;;;;4918513;29;20433;-74
2022/11/04 02:47:41;;;;;;;5.40;4.90;;;12.10;99.90;;;;;;4918150;29;20428;-74
2022/11/04 02:50:15;;;;;;;5.43;4.33;;;12.10;99.90;;;;;;4918189;29;20433;-74
2022/11/04 02:52:49;;;;;;;3.90;3.50;;;12.10;99.90;;;;;;4917907;29;20484;-74
2022/11/04 02:55:22;;;;;;;3.77;3.23;;;12.00;99.90;;;;;;4918255;29;20431;-74
2022/11/04 02:57:55;;;;;;;3.37;2.93;;;12.00;99.90;;;;;;4918412;29;20433;-74
2022/11/04 03:00:24;;;;;;;3.50;2.97;;;12.00;99.90;;;;;;4918326;29;20461;-74
2022/11/04 03:02:57;;;;;;;3.60;3.00;;;12.00;99.90;;;;;;4917983;29;20464;-74
2022/11/04 03:05:30;;;;;;;3.03;2.60;;;12.00;99.90;;;;;;4916774;29;20455;-74
2022/11/04 03:08:04;;;;;;;3.10;2.50;;;12.00;99.90;;;;;;4916535;29;20527;-74
2022/11/04 03:10:36;;;;;;;3.43;2.37;;;12.00;99.90;;;;;;4917615;29;20453;-74
2022/11/04 03:13:10;;;;;;;3.07;2.20;;;11.90;99.90;;;;;;4917504;29;20994;-74
2022/11/04 03:15:42;;;;;;;3.73;2.13;;;11.90;99.90;;;;;;4918556;29;20440;-74
2022/11/04 03:18:21;;;;;;;3.73;2.50;;;11.90;99.90;;;;;;4917846;29;20431;-74
2022/11/04 03:20:51;;;;;;;3.03;2.70;;;11.90;99.90;;;;;;4918297;29;20464;-73
2022/11/04 03:23:19;;;;;;;4.30;2.73;;;11.90;99.90;;;;;;4917880;29;20495;-74
2022/11/04 03:25:53;;;;;;;3.57;2.50;;;11.90;99.90;;;;;;4918203;29;20440;-74
2022/11/04 03:28:30;;;;;;;3.53;2.70;;;11.90;99.90;;;;;;4917926;29;20612;-74
2022/11/04 03:31:04;;;;;;;3.33;2.77;;;11.80;99.90;;;;;;4918092;29;20435;-74
2022/11/04 03:33:40;;;;;;;4.13;3.07;;;11.80;99.90;;;;;;4916690;29;20527;-73
2022/11/04 03:36:08;;;;;;;4.23;3.50;;;11.80;99.90;;;;;;4917995;29;20503;-74
2022/11/04 03:38:37;;;;;;;4.33;3.00;;;11.80;99.90;;;;;;4918351;29;20484;-74
2022/11/04 03:41:11;;;;;;;4.20;3.33;;;11.80;99.90;;;;;;4917535;29;20890;-73
2022/11/04 03:43:41;;;;;;;3.83;3.37;;;11.80;99.90;;;;;;4918521;29;20812;-74
2022/11/04 03:46:11;;;;;;;4.17;3.70;;;11.80;99.90;;;;;;4917044;29;20790;-74
2022/11/04 03:48:40;;;;;;;4.20;3.80;;;11.70;99.90;;;;;;4917557;29;20445;-74
2022/11/04 03:51:09;;;;;;;4.07;3.67;;;11.70;99.90;;;;;;4916633;29;20476;-74
2022/11/04 03:53:39;;;;;;;4.80;4.30;;;11.70;99.90;;;;;;4917944;29;20444;-74
2022/11/04 03:56:35;;;;;;;5.10;4.60;;;11.70;99.90;;;;;;4917588;29;20793;-74
2022/11/04 03:59:13;;;;;;;5.27;4.77;;;11.70;99.90;;;;;;4918409;29;20485;-74
2022/11/04 04:01:50;;;;;;;7.10;6.27;;;11.70;99.90;;;;;;4917962;29;20463;-74
2022/11/04 04:04:26;;;;;;;5.30;4.80;;;11.70;99.90;;;;;;4916669;29;20444;-74
2022/11/04 04:07:00;;;;;;;5.70;5.20;;;11.60;99.90;;;;;;4918425;29;20429;-74
2022/11/04 04:09:37;;;;;;;5.77;5.27;;;11.60;99.90;;;;;;4921283;29;20467;-74
2022/11/04 04:12:10;;;;;;;5.63;5.13;;;11.60;99.90;;;;;;4921435;29;20460;-74
2022/11/04 04:14:43;;;;;;;6.03;5.10;;;11.60;99.90;;;;;;4921648;29;20429;-74
2022/11/04 04:17:18;;;;;;;6.43;5.87;;;11.60;99.90;;;;;;4922381;29;20459;-74
2022/11/04 04:19:52;;;;;;;6.83;6.13;;;11.60;99.90;;;;;;4923618;29;20825;-74
2022/11/04 04:22:23;;;;;;;6.07;5.23;;;11.60;99.90;;;;;;4922321;29;20491;-74
2022/11/04 04:27:42;;;;;;;6.40;5.73;;;11.60;99.90;;;;;;4921649;29;20795;-74
2022/11/04 04:30:12;;;;;;;6.87;6.27;;;11.50;99.90;;;;;;4920909;29;20445;-74
2022/11/04 04:32:46;;;;;;;7.20;6.50;;;11.60;99.90;;;;;;4919862;29;20523;-74
2022/11/04 04:46:19;;;;;;;7.93;7.23;;;11.60;99.90;;;;;;4921165;29;20448;-74
2022/11/04 04:48:48;;;;;;;7.80;7.00;;;11.60;99.90;;;;;;4921256;29;20480;-74
2022/11/04 04:51:16;;;;;;;7.47;6.77;;;11.60;99.90;;;;;;4919558;29;20535;-74
2022/11/04 04:53:44;;;;;;;7.97;7.23;;;11.60;99.90;;;;;;4921089;29;21033;-74
2022/11/04 04:56:12;;;;;;;8.90;8.10;;;11.60;99.90;;;;;;4920635;29;20445;-74
2022/11/04 04:58:40;;;;;;;8.83;8.03;;;11.60;99.90;;;;;;4921456;29;20488;-74
2022/11/04 05:01:08;;;;;;;8.43;7.63;;;11.70;99.90;;;;;;4920974;29;20480;-74
2022/11/04 05:03:36;;;;;;;8.20;7.50;;;11.70;99.90;;;;;;4921119;29;20939;-74
2022/11/04 05:06:13;;;;;;;9.40;8.50;;;11.60;99.90;;;;;;4921868;29;20439;-74
2022/11/04 05:08:41;;;;;;;9.10;7.50;;;11.60;99.90;;;;;;4921228;29;20440;-74
2022/11/04 05:11:09;;;;;;;9.73;8.30;;;11.60;99.90;;;;;;4920222;29;20487;-74
2022/11/04 05:13:37;;;;;;;9.20;8.47;;;11.60;99.90;;;;;;4920860;29;20512;-74
2022/11/04 05:16:07;;;;;;;9.30;8.40;;;11.60;99.90;;;;;;4919278;29;20510;-74
2022/11/04 05:18:36;;;;;;;9.90;9.03;;;11.60;99.90;;;;;;4919133;29;20448;-74
2022/11/04 05:21:05;;;;;;;9.63;8.83;;;11.60;99.90;;;;;;4918062;29;20535;-72
2022/11/04 05:23:34;;;;;;;8.67;7.97;;;11.60;99.90;;;;;;4919150;29;20436;-73
2022/11/04 05:26:03;;;;;;;9.57;7.90;;;11.60;99.90;;;;;;4917901;29;20458;-73
2022/11/04 05:28:31;;;;;;;8.27;7.53;;;11.50;99.90;;;;;;4919104;29;20445;-72
2022/11/04 05:31:03;;;;;;;8.60;7.87;;;11.50;99.90;;;;;;4917880;29;20468;-73
2022/11/04 05:33:31;;;;;;;8.70;7.90;;;11.50;99.90;;;;;;4919600;29;20907;-72
2022/11/04 05:36:06;;;;;;;8.57;7.80;;;11.50;99.90;;;;;;4919053;29;20504;-72
2022/11/04 05:38:36;;;;;;;8.87;8.17;;;11.50;99.90;;;;;;4919283;29;20423;-72
2022/11/04 05:41:05;;;;;;;8.67;7.97;;;11.50;99.90;;;;;;4919225;29;20492;-72
2022/11/04 05:43:34;;;;;;;8.70;7.90;;;11.50;99.90;;;;;;4918886;29;20481;-73
2022/11/04 05:46:02;;;;;;;8.57;7.77;;;11.50;99.90;;;;;;4918868;29;20854;-72
2022/11/04 05:48:30;;;;;;;8.07;7.27;;;11.50;99.90;;;;;;4918750;29;20441;-72
2022/11/04 05:51:07;;;;;;;8.10;7.37;;;11.50;99.90;;;;;;4917597;29;20444;-72
2022/11/04 05:53:36;;;;;;;7.70;7.00;;;11.50;99.90;;;;;;4919400;29;20448;-73
2022/11/04 05:56:04;;;;;;;8.13;7.43;;;11.50;99.90;;;;;;4919249;29;20969;-72
2022/11/04 05:58:32;;;;;;;8.70;7.90;;;11.50;99.90;;;;;;4918876;29;20440;-72
2022/11/04 06:01:12;;;;;;;8.50;7.50;;;11.60;99.90;;;;;;4918809;29;20500;-72
2022/11/04 06:03:40;;;;;;;7.93;7.20;;;11.60;99.90;;;;;;4919259;29;20420;-72
2022/11/04 06:06:08;;;;;;;7.63;6.97;;;11.50;99.90;;;;;;4918967;29;20456;-72
2022/11/04 06:08:38;;;;;;;7.30;6.70;;;11.60;99.90;;;;;;4918795;29;20440;-72
2022/11/04 06:11:12;;;;;;;7.60;7.00;;;11.50;99.90;;;;;;4919318;29;20879;-72
2022/11/04 06:13:40;;;;;;;8.30;7.60;;;11.50;99.90;;;;;;4919012;29;20495;-72
2022/11/04 06:16:08;;;;;;;8.73;7.93;;;11.50;99.90;;;;;;4918994;29;20456;-72
2022/11/04 06:18:36;;;;;;;8.23;7.53;;;11.50;99.90;;;;;;4918418;29;20445;-72
2022/11/04 06:21:21;;;;;;;7.47;6.77;;;11.50;99.90;;;;;;4918238;29;20484;-74
2022/11/04 06:23:51;;;;;;;7.23;6.60;;;11.50;99.90;;;;;;4917282;29;20453;-74
2022/11/04 06:26:19;;;;;;;6.17;5.67;;;11.50;99.90;;;;;;4918204;29;20444;-72
2022/11/04 06:28:54;;;;;;;6.37;5.77;;;11.50;99.90;;;;;;4917095;29;20450;-72
2022/11/04 06:31:22;;;;;;;6.03;5.43;;;11.50;99.90;;;;;;4917734;29;20460;-72
2022/11/04 06:33:50;;;;;;;5.33;4.80;;;11.50;99.90;;;;;;4918653;29;20444;-72
2022/11/04 06:36:18;;;;;;;4.83;4.43;;;11.50;99.90;;;;;;4917438;29;20951;-72
2022/11/04 06:38:46;;;;;;;5.20;4.70;;;11.50;99.90;;;;;;4918251;29;20440;-72
2022/11/04 06:41:16;;;;;;;5.40;4.90;;;11.50;99.90;;;;;;4918146;29;20539;-72
2022/11/04 06:43:45;;;;;;;6.07;4.90;;;11.40;99.90;;;;;;4917248;29;20452;-72
2022/11/04 06:46:27;;;;;;;5.83;4.40;;;11.40;99.90;;;;;;4918024;29;20495;-72
2022/11/04 06:48:56;;;;;;;4.07;3.67;;;11.40;99.90;;;;;;4918098;29;20428;-72
2022/11/04 06:51:25;;;;;;;4.30;3.90;;;11.40;99.90;;;;;;4917993;29;20468;-72
2022/11/04 06:53:53;;;;;;;4.90;4.40;;;11.40;99.90;;;;;;4917959;29;20935;-73
2022/11/04 06:56:23;;;;;;;4.43;4.03;;;11.40;99.90;;;;;;4917964;29;20444;-74
2022/11/04 06:58:52;;;;;;;4.50;4.10;;;11.40;99.90;;;;;;4916723;29;20449;-72
2022/11/04 07:01:22;;;;;;;4.43;4.03;;;11.40;99.90;;;;;;4916929;29;21098;-73
2022/11/04 07:03:51;;;;;;;4.37;3.97;;;11.40;99.90;;;;;;4918299;29;20452;-73
2022/11/04 07:06:20;;;;;;;5.37;4.90;;;11.40;99.90;;;;;;4918062;29;20540;-72
2022/11/04 07:08:49;;;;;;;5.00;4.60;;;11.40;99.90;;;;;;4917662;29;20436;-73
2022/11/04 07:11:20;;;;;;;5.30;4.80;;;11.40;99.90;;;;;;4916184;29;20475;-72
2022/11/04 07:13:50;;;;;;;5.40;4.83;;;11.40;99.90;;;;;;4917650;29;20429;-72
2022/11/04 07:16:19;;;;;;;5.60;5.00;;;11.40;99.90;;;;;;4917848;29;20457;-73
2022/11/04 07:18:48;;;;;;;6.20;5.60;;;11.40;99.90;;;;;;4917482;29;20444;-73
2022/11/04 07:21:16;;;;;;;6.30;5.80;;;11.40;99.90;;;;;;4917649;29;20483;-72
2022/11/04 07:23:44;;;;;;;6.90;6.30;;;11.30;99.90;;;;;;4916186;29;20853;-73
2022/11/04 07:26:13;;;;;;;7.17;6.47;;;11.40;99.90;;;;;;4917966;29;20455;-73
2022/11/04 07:28:41;;;;;;;6.70;5.80;;;11.40;99.90;;;;;;4917846;29;20519;-72
2022/11/04 07:31:12;;;;;;;6.23;5.73;;;11.40;99.90;;;;;;4917995;29;20500;-73
2022/11/04 07:33:40;;;;;;;6.67;6.17;;;11.40;99.90;;;;;;4917880;29;20428;-72
2022/11/04 07:36:12;;;;;;;6.53;5.93;;;11.40;99.90;;;;;;4917551;29;20496;-73
2022/11/04 07:38:40;;;;;;;6.90;6.30;;;11.40;99.90;;;;;;4917693;29;20463;-72
2022/11/04 07:41:08;;;;;;;7.63;6.90;;;11.40;99.90;;;;;;4917546;29;20818;-73
2022/11/04 07:43:36;;;;;;;7.40;6.70;;;11.40;99.90;;;;;;4920385;29;20445;-73
2022/11/04 07:46:06;;;;;;;7.17;6.50;;;11.40;99.90;;;;;;4921498;29;20452;-73
2022/11/04 07:48:36;;;;;;;7.00;6.40;;;11.40;99.90;;;;;;4919863;29;20463;-73
2022/11/04 07:51:07;;;;;;;6.50;5.90;;;11.40;99.90;;;;;;4921478;29;20475;-73
2022/11/04 07:53:35;;;;;;;6.47;5.87;;;11.40;99.90;;;;;;4921444;29;20444;-73
2022/11/04 07:56:04;;;;;;;6.87;6.27;;;11.40;99.90;;;;;;4923625;29;20878;-73
2022/11/04 07:58:33;;;;;;;6.20;5.70;;;11.40;99.90;;;;;;4921731;29;20449;-72
2022/11/04 08:01:02;;;;;;;7.20;6.60;;;11.40;99.90;;;;;;4920564;29;20464;-72
2022/11/04 08:03:30;;;;;;;6.60;6.00;;;11.40;99.90;;;;;;4920264;29;20476;-72
2022/11/04 08:06:01;;;;;;;6.40;5.80;;;11.40;99.90;;;;;;4921623;29;20463;-73
2022/11/04 08:08:30;;;;;;;6.63;6.03;;;11.40;99.90;;;;;;4919934;29;20460;-72
2022/11/04 08:11:00;;;;;;;5.70;4.50;;;11.40;99.90;;;;;;4921034;29;20978;-72
2022/11/04 08:13:29;;;;;;;7.40;6.13;;;11.40;99.90;;;;;;4921356;29;20444;-73
2022/11/04 08:15:57;;;;;;;6.60;5.87;;;11.40;99.90;;;;;;4919950;29;20473;-73
2022/11/04 08:18:25;;;;;;;5.90;5.30;;;11.40;99.90;;;;;;4921416;29;20838;-73
2022/11/04 08:20:53;;;;;;;5.73;5.13;;;11.40;99.90;;;;;;4921203;29;20456;-73
2022/11/04 08:23:23;;;;;;;5.57;5.07;;;11.40;99.90;;;;;;4920944;29;20575;-73
2022/11/04 08:25:51;;;;;;;6.00;4.43;;;11.40;99.90;;;;;;4920111;29;20507;-72
2022/11/04 08:28:19;;;;;;;6.97;5.17;;;11.40;99.90;;;;;;4919517;29;20453;-72
2022/11/04 08:30:55;;;;;;;4.60;4.00;;;11.40;99.90;;;;;;4919541;29;20540;-72
2022/11/04 08:33:25;;;;;;;5.20;4.70;;;11.40;99.90;;;;;;4921130;29;20538;-72
2022/11/04 08:35:55;;;;;;;5.40;4.90;;;11.50;99.90;;;;;;4921493;29;20448;-72
2022/11/04 08:38:24;;;;;;;5.90;5.20;;;11.50;99.90;;;;;;4919731;29;20534;-73
2022/11/04 08:40:56;;;;;;;4.77;4.33;;;11.60;99.90;;;;;;4920576;29;20443;-72
2022/11/04 08:43:27;;;;;;;4.30;3.90;;;11.60;99.90;;;;;;4921021;29;20459;-72
2022/11/04 08:45:55;;;;;;;5.43;4.83;;;11.60;99.90;;;;;;4920381;29;20939;-72
2022/11/04 08:48:24;;;;;;;4.47;4.03;;;11.60;99.90;;;;;;4919145;29;20876;-73
2022/11/04 08:50:53;;;;;;;5.67;4.60;;;11.60;99.90;;;;;;4919050;29;20462;-72
2022/11/04 08:53:23;;;;;;;5.40;5.00;;;11.60;99.90;;;;;;4918704;29;20511;-72
2022/11/04 08:55:52;;;;;;;4.87;4.37;;;11.70;99.90;;;;;;4918776;29;20448;-72
2022/11/04 08:58:20;;;;;;;5.63;5.10;;;11.70;99.90;;;;;;4919615;29;20958;-72
2022/11/04 09:00:49;;;;;;;6.80;4.97;;;11.70;99.90;;;;;;4920511;29;20444;-72
2022/11/04 09:03:17;;;;;;;5.20;4.50;;;11.70;99.90;;;;;;4920317;29;20500;-72
2022/11/04 09:05:47;;;;;;;4.50;4.10;;;11.70;99.90;;;;;;4919849;29;20444;-72
2022/11/04 09:08:17;;;;;;;4.83;4.13;;;11.80;99.90;;;;;;4918893;29;20456;-72
2022/11/04 09:10:48;;;;;;;4.30;3.90;;;11.80;99.90;;;;;;4920439;29;20475;-73
2022/11/04 09:13:16;;;;;;;4.80;3.07;;;11.80;99.90;;;;;;4920132;29;20425;-72
2022/11/04 09:15:44;;;;;;;4.00;3.23;;;11.80;99.90;;;;;;4920364;29;20445;-72
2022/11/04 09:18:13;;;;;;;3.53;2.73;;;11.80;99.90;;;;;;4918849;29;20539;-72
2022/11/04 09:20:41;;;;;;;4.97;3.10;;;11.90;99.90;;;;;;4918604;29;20456;-72
2022/11/04 09:23:09;;;;;;;5.90;2.93;;;11.90;99.90;;;;;;4919454;29;20480;-74
2022/11/04 09:25:38;;;;;;;3.57;2.50;;;11.90;99.90;;;;;;4921716;29;20448;-72
2022/11/04 09:28:08;;;;;;;3.80;3.23;;;11.90;99.90;;;;;;4920467;29;20480;-72
2022/11/04 09:30:36;;;;;;;5.43;3.13;;;11.90;99.90;;;;;;4920414;29;20478;-74
2022/11/04 09:33:04;;;;;;;4.87;3.80;;;11.90;99.90;;;;;;4920015;29;20472;-74
2022/11/04 09:35:33;;;;;;;6.87;5.70;;;12.00;99.90;;;;;;4919205;29;20525;-73
2022/11/04 09:38:01;;;;;;;5.17;4.77;;;12.00;99.90;;;;;;4919753;29;20453;-73
2022/11/04 09:40:29;;;;;;;5.43;4.93;;;12.00;99.90;;;;;;4919753;29;20447;-73
2022/11/04 09:43:12;;;;;;;5.37;4.87;;;12.00;99.90;;;;;;4919605;29;20485;-73
2022/11/04 09:45:43;;;;;;;6.67;5.07;;;12.10;99.90;;;;;;4919891;29;20436;-73
2022/11/04 09:48:18;;;;;;;5.30;4.80;;;12.10;99.90;;;;;;4919564;29;20425;-74
2022/11/04 09:50:50;;;;;;;6.40;5.70;;;12.10;99.90;;;;;;4919816;29;20421;-72
2022/11/04 09:53:23;;;;;;;5.57;5.07;;;12.20;99.90;;;;;;4919620;29;20891;-73
2022/11/04 09:55:56;;;;;;;6.43;5.80;;;12.20;99.90;;;;;;4917947;29;20445;-72
2022/11/04 09:58:26;;;;;;;5.57;4.90;;;12.30;99.90;;;;;;4919704;29;20435;-74
2022/11/04 10:00:58;;;;;;;5.27;4.87;;;12.30;99.90;;;;;;4918062;29;20448;-72
2022/11/04 10:03:52;;;;;;;5.20;4.10;;;12.30;99.90;;;;;;4919264;29;20966;-74
2022/11/04 10:06:30;;;;;;;6.80;3.83;;;12.40;99.90;;;;;;4918105;29;20429;-72
2022/11/04 10:09:20;;;;;;;4.00;3.20;;;12.40;99.90;;;;;;4917657;29;20467;-71
2022/11/04 10:11:57;;;;;;;4.03;2.90;;;12.50;99.90;;;;;;4919120;29;20495;-71
2022/11/04 10:14:52;;;;;;;5.77;3.67;;;12.50;99.90;;;;;;4920905;29;20416;-71
2022/11/04 10:17:37;;;;;;;4.00;3.50;;;12.60;99.90;;;;;;4925501;29;20452;-72
2022/11/04 10:20:24;;;;;;;4.10;3.07;;;12.60;99.90;;;;;;4920676;29;20416;-73
2022/11/04 10:22:58;;;;;;;5.00;2.67;;;12.70;99.90;;;;;;4919869;29;20480;-74
2022/11/04 10:25:32;;;;;;;3.70;2.83;;;12.70;99.90;;;;;;4919541;29;20447;-73
2022/11/04 10:28:00;;;;;;;3.27;2.40;;;12.70;99.90;;;;;;4918894;29;20441;-73
2022/11/04 10:30:30;;;;;;;3.77;2.60;;;12.70;99.90;;;;;;4918853;29;20447;-73
2022/11/04 10:33:04;;;;;;;4.93;3.30;;;12.70;99.90;;;;;;4916913;29;20491;-73
2022/11/04 10:35:39;;;;;;;3.90;3.17;;;12.80;99.90;;;;;;4918761;29;20427;-73
2022/11/04 10:38:18;;;;;;;5.87;3.60;;;12.80;99.90;;;;;;4918976;29;20784;-73
2022/11/04 10:40:49;;;;;;;4.17;3.23;;;12.80;99.90;;;;;;4917017;29;20965;-73
2022/11/04 10:43:21;;;;;;;4.47;3.33;;;12.90;99.90;;;;;;4918676;29;20479;-73
2022/11/04 10:45:58;;;;;;;6.23;2.93;;;12.90;99.90;;;;;;4918766;29;20435;-73
2022/11/04 10:48:33;;;;;;;4.53;3.80;;;12.90;99.90;;;;;;4918109;29;20448;-73
2022/11/04 10:51:01;;;;;;;4.60;3.53;;;12.90;99.90;;;;;;4916926;29;20448;-73
2022/11/04 10:53:31;;;;;;;4.47;2.90;;;12.90;99.90;;;;;;4918216;29;20856;-73
2022/11/04 10:56:08;;;;;;;4.37;3.80;;;12.90;99.90;;;;;;4917125;29;20492;-73
2022/11/04 10:58:43;;;;;;;5.57;4.40;;;12.90;99.90;;;;;;4918375;29;20428;-73
2022/11/04 11:01:28;;;;;;;5.00;4.20;;;12.90;99.90;;;;;;4918731;29;20969;-73
2022/11/04 11:03:57;;;;;;;5.43;4.70;;;12.90;99.90;;;;;;4918471;29;20832;-73
2022/11/04 11:06:28;;;;;;;5.83;4.97;;;12.90;99.90;;;;;;4918187;29;20945;-73
2022/11/04 11:08:59;;;;;;;5.30;3.90;;;12.80;99.90;;;;;;4916939;29;20448;-74
2022/11/04 11:11:46;;;;;;;5.40;4.50;;;12.90;99.90;;;;;;4918221;29;20464;-74
2022/11/04 11:14:19;;;;;;;6.90;4.03;;;12.90;99.90;;;;;;4916845;29;20457;-73
2022/11/04 11:16:49;;;;;;;6.10;4.60;;;12.90;99.90;;;;;;4916682;29;20448;-73
2022/11/04 11:19:19;;;;;;;9.00;5.37;;;12.90;99.90;;;;;;4918019;29;20444;-74
2022/11/04 11:21:48;;;;;;;7.03;6.33;;;12.90;99.90;;;;;;4917962;29;20460;-74
2022/11/04 11:24:20;;;;;;;6.57;5.87;;;13.00;99.90;;;;;;4918293;29;20472;-74
2022/11/04 11:26:51;;;;;;;6.60;5.90;;;13.00;99.90;;;;;;4917844;29;20421;-74
2022/11/04 11:29:24;;;;;;;7.83;5.13;;;13.00;99.90;;;;;;4921145;29;20475;-74
2022/11/04 11:31:55;;;;;;;7.73;5.37;;;13.00;99.90;;;;;;4919466;29;20467;-73
2022/11/04 11:34:28;;;;;;;6.73;5.13;;;13.10;99.90;;;;;;4917947;29;20440;-74
2022/11/04 11:36:57;;;;;;;7.20;5.27;;;13.10;99.90;;;;;;4917928;29;20448;-73
2022/11/04 11:39:28;;;;;;;6.60;6.00;;;13.10;99.90;;;;;;4917961;29;20456;-73
2022/11/04 11:42:00;;;;;;;9.57;7.93;;;13.10;99.90;;;;;;4917851;29;20460;-74
2022/11/04 11:44:33;;;;;;;9.23;6.70;;;13.10;99.90;;;;;;4918431;29;20467;-74
2022/11/04 11:47:05;;;;;;;10.40;6.67;;;13.10;99.90;;;;;;4916469;29;20525;-74
2022/11/04 11:49:35;;;;;;;6.13;5.53;;;13.20;99.90;;;;;;4918160;29;20433;-74
2022/11/04 11:52:30;;;;;;;7.13;5.67;;;13.20;99.90;;;;;;4917356;29;20467;-74
2022/11/04 11:55:06;;;;;;;7.53;6.13;;;13.20;99.90;;;;;;4912501;29;20444;-74
2022/11/04 11:57:48;;;;;;;8.00;6.40;;;13.20;99.90;;;;;;4917835;29;20815;-74
2022/11/04 12:00:42;;;;;;;7.97;6.30;;;13.20;99.90;;;;;;4917952;29;20496;-74
2022/11/04 12:03:24;;;;;;;7.43;6.67;;;13.20;99.90;;;;;;4917784;29;20433;-73
2022/11/04 12:06:01;;;;;;;7.47;6.53;;;13.30;99.90;;;;;;4917549;29;20531;-73
2022/11/04 12:08:59;;;;;;;6.27;5.67;;;13.40;99.90;;;;;;4917514;29;20472;-74
2022/11/04 12:12:04;;;;;;;7.07;5.73;;;13.50;99.90;;;;;;4917258;29;20488;-74
2022/11/04 12:14:55;;;;;;;6.97;5.00;;;13.50;99.90;;;;;;4917460;29;20871;-73
2022/11/04 12:17:35;;;;;;;7.70;5.27;;;13.50;99.90;;;;;;4917480;29;20444;-74
2022/11/04 12:20:19;;;;;;;7.23;4.73;;;13.50;99.90;;;;;;4917492;29;20509;-74
2022/11/04 12:22:58;;;;;;;7.30;5.40;;;13.40;99.90;;;;;;4917272;29;20460;-74
2022/11/04 12:25:36;;;;;;;9.97;6.07;;;13.50;99.90;;;;;;4917519;29;20551;-74
2022/11/04 12:28:12;;;;;;;7.10;5.87;;;13.50;99.90;;;;;;4917893;29;20519;-74
2022/11/04 12:30:51;;;;;;;7.00;5.33;;;13.60;99.90;;;;;;4921522;29;20491;-74
2022/11/04 12:33:29;;;;;;;7.30;5.40;;;13.60;99.90;;;;;;4921138;29;20480;-74
2022/11/04 12:36:13;;;;;;;7.17;6.03;;;13.60;99.90;;;;;;4920748;29;20460;-74
2022/11/04 12:38:58;;;;;;;7.77;4.97;;;13.60;99.90;;;;;;4921096;29;20420;-74
2022/11/04 12:41:36;;;;;;;5.73;4.20;;;13.70;99.90;;;;;;4921242;29;20988;-74
2022/11/04 12:44:32;;;;;;;6.40;4.53;;;13.70;99.90;;;;;;4920743;29;20977;-73
2022/11/04 12:47:18;;;;;;;7.67;4.97;;;13.70;99.90;;;;;;4921497;29;20763;-74
2022/11/04 12:50:17;;;;;;;6.00;4.57;;;13.70;99.90;;;;;;4920559;29;20941;-74
2022/11/04 12:53:12;;;;;;;5.97;4.10;;;13.70;99.90;;;;;;4920455;29;20471;-74
2022/11/04 12:55:49;;;;;;;5.20;3.83;;;13.70;99.90;;;;;;4919255;29;20459;-74
2022/11/04 12:58:37;;;;;;;5.50;3.93;;;13.60;99.90;;;;;;4918728;29;20531;-74
2022/11/04 13:01:08;;;;;;;5.73;4.10;;;13.60;99.90;;;;;;4920201;29;20440;-74
2022/11/04 13:03:48;;;;;;;5.90;3.60;;;13.60;99.90;;;;;;4920409;29;20797;-74
2022/11/04 13:06:19;;;;;;;5.10;3.10;;;13.70;99.90;;;;;;4920685;29;20424;-74
2022/11/04 13:08:53;;;;;;;5.37;3.90;;;13.70;99.90;;;;;;4920370;29;20934;-74
2022/11/04 13:11:25;;;;;;;5.67;3.90;;;13.70;99.90;;;;;;4919221;29;20994;-74
2022/11/04 13:14:02;;;;;;;5.83;3.50;;;13.80;99.90;;;;;;4920713;29;20424;-74
2022/11/04 13:16:34;;;;;;;5.00;3.50;;;13.80;99.90;;;;;;4920800;29;20436;-74
2022/11/04 13:19:02;;;;;;;4.43;2.43;;;13.80;99.90;;;;;;4920113;29;20439;-74
2022/11/04 13:21:36;;;;;;;4.77;2.40;;;13.90;99.90;;;;;;4919937;29;20515;-74
2022/11/04 13:24:13;;;;;;;4.83;3.30;;;13.80;99.90;;;;;;4918326;29;20455;-74
2022/11/04 13:26:41;;;;;;;5.20;3.20;;;13.80;99.90;;;;;;4920301;29;20435;-74
2022/11/04 13:29:14;;;;;;;6.90;3.00;;;13.70;99.90;;;;;;4920038;29;20452;-74
2022/11/04 13:31:50;;;;;;;5.17;3.37;;;13.70;99.90;;;;;;4919462;29;20504;-74
2022/11/04 13:34:31;;;;;;;4.83;3.13;;;13.60;99.90;;;;;;4919368;29;20420;-74
2022/11/04 13:37:10;;;;;;;6.90;3.50;;;13.60;99.90;;;;;;4918169;29;20507;-74
2022/11/04 13:39:44;;;;;;;4.67;3.70;;;13.60;99.90;;;;;;4917165;29;20448;-74
2022/11/04 13:42:48;;;;;;;4.20;3.20;;;13.60;99.90;;;;;;4919353;29;20523;-74
2022/11/04 13:45:19;;;;;;;5.17;3.30;;;13.60;99.90;;;;;;4919614;29;20456;-74
2022/11/04 13:47:50;;;;;;;6.63;3.97;;;13.60;99.90;;;;;;4919343;29;20421;-74
2022/11/04 13:50:32;;;;;;;6.27;3.20;;;13.60;99.90;;;;;;4919320;29;20420;-74
2022/11/04 13:53:00;;;;;;;6.80;3.37;;;13.60;99.90;;;;;;4919446;29;20475;-74
2022/11/04 13:55:30;;;;;;;4.03;3.37;;;13.70;99.90;;;;;;4918994;29;20507;-75